sensor_id;sensor_type;location;lat;lon;timestamp;pressure;altitude;pressure_sealevel;temperature;humidity
83424;BME280;73355;49.044;8.686;2023-12-20T00:01:34;99709.28;;;6.98;76.24
83424;BME280;73355;49.044;8.686;2023-12-20T00:04:00;99704.63;;;6.95;76.27
83424;BME280;73355;49.044;8.686;2023-12-20T00:06:25;99704.25;;;6.96;76.52
83424;BME280;73355;49.044;8.686;2023-12-20T00:08:50;99706.53;;;6.91;76.94
83424;BME280;73355;49.044;8.686;2023-12-20T00:11:16;99706.91;;;6.89;76.79
83424;BME280;73355;49.044;8.686;2023-12-20T00:13:46;99708.81;;;6.85;77.38
83424;BME280;73355;49.044;8.686;2023-12-20T00:16:12;99704.19;;;6.82;77.39
83424;BME280;73355;49.044;8.686;2023-12-20T00:18:37;99703.00;;;6.80;77.49
83424;BME280;73355;49.044;8.686;2023-12-20T00:21:03;99709.59;;;6.86;77.58
83424;BME280;73355;49.044;8.686;2023-12-20T00:23:31;99706.50;;;6.84;77.40
83424;BME280;73355;49.044;8.686;2023-12-20T00:25:57;99707.59;;;6.72;78.02
83424;BME280;73355;49.044;8.686;2023-12-20T00:28:22;99703.28;;;6.60;78.37
83424;BME280;73355;49.044;8.686;2023-12-20T00:30:48;99693.63;;;6.67;78.17
83424;BME280;73355;49.044;8.686;2023-12-20T00:33:13;99697.13;;;6.67;79.03
83424;BME280;73355;49.044;8.686;2023-12-20T00:35:39;99700.19;;;6.58;78.76
83424;BME280;73355;49.044;8.686;2023-12-20T00:38:04;99699.41;;;6.58;79.37
83424;BME280;73355;49.044;8.686;2023-12-20T00:40:30;99702.53;;;6.63;79.43
83424;BME280;73355;49.044;8.686;2023-12-20T00:42:55;99692.06;;;6.58;80.10
83424;BME280;73355;49.044;8.686;2023-12-20T00:45:21;99692.00;;;6.51;79.64
83424;BME280;73355;49.044;8.686;2023-12-20T00:47:46;99692.00;;;6.48;79.50
83424;BME280;73355;49.044;8.686;2023-12-20T00:50:11;99694.34;;;6.53;79.65
83424;BME280;73355;49.044;8.686;2023-12-20T00:52:37;99697.47;;;6.58;79.71
83424;BME280;73355;49.044;8.686;2023-12-20T00:55:02;99691.28;;;6.58;79.60
83424;BME280;73355;49.044;8.686;2023-12-20T00:57:29;99695.91;;;6.57;79.62
83424;BME280;73355;49.044;8.686;2023-12-20T00:59:54;99687.75;;;6.50;79.96
83424;BME280;73355;49.044;8.686;2023-12-20T01:02:19;99704.38;;;6.49;79.81
83424;BME280;73355;49.044;8.686;2023-12-20T01:04:44;99701.69;;;6.56;80.13
83424;BME280;73355;49.044;8.686;2023-12-20T01:07:10;99704.38;;;6.52;80.40
83424;BME280;73355;49.044;8.686;2023-12-20T01:09:35;99705.19;;;6.56;80.69
83424;BME280;73355;49.044;8.686;2023-12-20T01:12:00;99707.88;;;6.53;80.32
83424;BME280;73355;49.044;8.686;2023-12-20T01:14:26;99700.47;;;6.46;80.75
83424;BME280;73355;49.044;8.686;2023-12-20T01:16:51;99710.94;;;6.51;80.54
83424;BME280;73355;49.044;8.686;2023-12-20T01:19:16;99694.34;;;6.53;80.30
83424;BME280;73355;49.044;8.686;2023-12-20T01:21:41;99688.94;;;6.56;80.86
83424;BME280;73355;49.044;8.686;2023-12-20T01:24:07;99694.00;;;6.58;80.61
83424;BME280;73355;49.044;8.686;2023-12-20T01:26:32;99690.84;;;6.49;80.40
83424;BME280;73355;49.044;8.686;2023-12-20T01:28:57;99687.72;;;6.47;80.70
83424;BME280;73355;49.044;8.686;2023-12-20T01:31:23;99693.56;;;6.49;80.86
83424;BME280;73355;49.044;8.686;2023-12-20T01:33:48;99682.81;;;6.67;81.27
83424;BME280;73355;49.044;8.686;2023-12-20T01:36:13;99692.06;;;6.58;80.64
83424;BME280;73355;49.044;8.686;2023-12-20T01:38:39;99693.97;;;6.54;81.08
83424;BME280;73355;49.044;8.686;2023-12-20T01:41:04;99685.09;;;6.54;80.88
83424;BME280;73355;49.044;8.686;2023-12-20T01:43:30;99684.69;;;6.55;81.48
83424;BME280;73355;49.044;8.686;2023-12-20T01:45:59;99687.81;;;6.57;81.58
83424;BME280;73355;49.044;8.686;2023-12-20T01:48:25;99683.94;;;6.55;81.12
83424;BME280;73355;49.044;8.686;2023-12-20T01:50:52;99682.41;;;6.61;80.92
83424;BME280;73355;49.044;8.686;2023-12-20T01:53:20;99686.31;;;6.67;81.10
83424;BME280;73355;49.044;8.686;2023-12-20T01:55:47;99694.03;;;6.69;80.68
83424;BME280;73355;49.044;8.686;2023-12-20T01:58:15;99685.53;;;6.63;81.00
83424;BME280;73355;49.044;8.686;2023-12-20T02:00:41;99688.63;;;6.69;81.14
83424;BME280;73355;49.044;8.686;2023-12-20T02:03:06;99681.72;;;6.78;80.67
83424;BME280;73355;49.044;8.686;2023-12-20T02:05:33;99687.19;;;6.82;80.59
83424;BME280;73355;49.044;8.686;2023-12-20T02:07:59;99687.13;;;6.71;80.54
83424;BME280;73355;49.044;8.686;2023-12-20T02:10:24;99693.31;;;6.75;81.00
83424;BME280;73355;49.044;8.686;2023-12-20T02:12:50;99703.78;;;6.77;80.48
83424;BME280;73355;49.044;8.686;2023-12-20T02:15:15;99696.44;;;6.77;80.28
83424;BME280;73355;49.044;8.686;2023-12-20T02:20:04;99705.38;;;6.88;80.93
83424;BME280;73355;49.044;8.686;2023-12-20T02:22:31;99693.03;;;6.94;79.81
83424;BME280;73355;49.044;8.686;2023-12-20T02:24:56;99695.34;;;6.92;80.04
83424;BME280;73355;49.044;8.686;2023-12-20T02:27:22;99687.59;;;6.91;79.49
83424;BME280;73355;49.044;8.686;2023-12-20T02:29:48;99698.00;;;6.85;79.52
83424;BME280;73355;49.044;8.686;2023-12-20T02:32:13;99691.03;;;6.77;80.23
83424;BME280;73355;49.044;8.686;2023-12-20T02:34:39;99696.06;;;6.86;79.72
83424;BME280;73355;49.044;8.686;2023-12-20T02:37:04;99687.13;;;6.75;80.02
83424;BME280;73355;49.044;8.686;2023-12-20T02:39:29;99691.75;;;6.71;80.21
83424;BME280;73355;49.044;8.686;2023-12-20T02:41:55;99687.88;;;6.68;80.61
83424;BME280;73355;49.044;8.686;2023-12-20T02:44:20;99696.03;;;6.79;80.29
83424;BME280;73355;49.044;8.686;2023-12-20T02:46:45;99691.03;;;6.81;80.41
83424;BME280;73355;49.044;8.686;2023-12-20T02:49:11;99700.25;;;6.73;80.13
83424;BME280;73355;49.044;8.686;2023-12-20T02:51:36;99698.00;;;6.85;80.41
83424;BME280;73355;49.044;8.686;2023-12-20T02:54:04;99696.44;;;6.77;80.14
83424;BME280;73355;49.044;8.686;2023-12-20T02:56:29;99701.91;;;6.88;80.13
83424;BME280;73355;49.044;8.686;2023-12-20T02:58:54;99709.97;;;6.84;80.14
83424;BME280;73355;49.044;8.686;2023-12-20T03:01:20;99703.78;;;6.80;80.21
83424;BME280;73355;49.044;8.686;2023-12-20T03:03:45;99708.78;;;6.75;80.21
83424;BME280;73355;49.044;8.686;2023-12-20T03:06:10;99711.81;;;6.66;80.62
83424;BME280;73355;49.044;8.686;2023-12-20T03:08:36;99713.75;;;6.69;80.82
83424;BME280;73355;49.044;8.686;2023-12-20T03:11:03;99714.59;;;6.77;81.08
83424;BME280;73355;49.044;8.686;2023-12-20T03:13:28;99712.66;;;6.77;80.70
83424;BME280;73355;49.044;8.686;2023-12-20T03:15:54;99719.63;;;6.82;80.59
83424;BME280;73355;49.044;8.686;2023-12-20T03:18:19;99713.38;;;6.71;80.76
83424;BME280;73355;49.044;8.686;2023-12-20T03:20:45;99717.28;;;6.77;80.70
83424;BME280;73355;49.044;8.686;2023-12-20T03:23:12;99716.09;;;6.74;80.61
83424;BME280;73355;49.044;8.686;2023-12-20T03:25:37;99712.56;;;6.67;80.55
83424;BME280;73355;49.044;8.686;2023-12-20T03:28:03;99721.88;;;6.69;81.04
83424;BME280;73355;49.044;8.686;2023-12-20T03:30:28;99713.78;;;6.73;80.88
83424;BME280;73355;49.044;8.686;2023-12-20T03:32:54;99695.63;;;6.73;80.56
83424;BME280;73355;49.044;8.686;2023-12-20T03:35:19;99695.63;;;6.73;80.61
83424;BME280;73355;49.044;8.686;2023-12-20T03:37:44;99710.28;;;6.69;80.10
83424;BME280;73355;49.044;8.686;2023-12-20T03:40:10;99710.28;;;6.69;80.87
83424;BME280;73355;49.044;8.686;2023-12-20T03:42:35;99708.03;;;6.78;80.65
83424;BME280;73355;49.044;8.686;2023-12-20T03:45:01;99715.38;;;6.77;80.58
83424;BME280;73355;49.044;8.686;2023-12-20T03:47:26;99720.00;;;6.77;80.32
83424;BME280;73355;49.044;8.686;2023-12-20T03:49:52;99706.47;;;6.77;80.76
83424;BME280;73355;49.044;8.686;2023-12-20T03:52:18;99697.09;;;6.60;80.70
83424;BME280;73355;49.044;8.686;2023-12-20T03:54:43;99700.94;;;6.59;81.04
83424;BME280;73355;49.044;8.686;2023-12-20T03:57:09;99690.50;;;6.61;80.93
83424;BME280;73355;49.044;8.686;2023-12-20T03:59:35;99701.38;;;6.68;81.01
83424;BME280;73355;49.044;8.686;2023-12-20T04:02:01;99700.25;;;6.73;80.90
83424;BME280;73355;49.044;8.686;2023-12-20T04:04:27;99697.16;;;6.71;80.90
83424;BME280;73355;49.044;8.686;2023-12-20T04:06:52;99704.44;;;6.63;80.76
83424;BME280;73355;49.044;8.686;2023-12-20T04:09:17;99698.31;;;6.66;81.00
83424;BME280;73355;49.044;8.686;2023-12-20T04:11:43;99703.31;;;6.68;80.64
83424;BME280;73355;49.044;8.686;2023-12-20T04:14:08;99713.31;;;6.60;80.95
83424;BME280;73355;49.044;8.686;2023-12-20T04:16:34;99724.16;;;6.60;81.08
83424;BME280;73355;49.044;8.686;2023-12-20T04:18:59;99722.59;;;6.62;81.00
83424;BME280;73355;49.044;8.686;2023-12-20T04:21:25;99716.06;;;6.67;81.15
83424;BME280;73355;49.044;8.686;2023-12-20T04:23:50;99729.16;;;6.61;80.97
83424;BME280;73355;49.044;8.686;2023-12-20T04:26:15;99716.47;;;6.69;81.11
83424;BME280;73355;49.044;8.686;2023-12-20T04:28:40;99723.00;;;6.64;80.76
83424;BME280;73355;49.044;8.686;2023-12-20T04:31:06;99727.66;;;6.68;80.90
83424;BME280;73355;49.044;8.686;2023-12-20T04:33:31;99725.38;;;6.73;80.79
83424;BME280;73355;49.044;8.686;2023-12-20T04:35:57;99713.03;;;6.76;80.67
83424;BME280;73355;49.044;8.686;2023-12-20T04:38:22;99723.38;;;6.63;80.83
83424;BME280;73355;49.044;8.686;2023-12-20T04:40:48;99731.19;;;6.72;81.42
83424;BME280;73355;49.044;8.686;2023-12-20T04:43:13;99737.00;;;6.77;80.72
83424;BME280;73355;49.044;8.686;2023-12-20T04:45:38;99729.16;;;6.61;80.80
83424;BME280;73355;49.044;8.686;2023-12-20T04:48:04;99745.00;;;6.63;81.54
83424;BME280;73355;49.044;8.686;2023-12-20T04:50:30;99738.03;;;6.58;81.64
83424;BME280;73355;49.044;8.686;2023-12-20T04:52:55;99740.41;;;6.67;81.88
83424;BME280;73355;49.044;8.686;2023-12-20T04:55:20;99743.88;;;6.64;81.77
83424;BME280;73355;49.044;8.686;2023-12-20T04:57:45;99740.38;;;6.63;81.75
83424;BME280;73355;49.044;8.686;2023-12-20T05:00:11;99742.28;;;6.59;81.51
83424;BME280;73355;49.044;8.686;2023-12-20T05:02:37;99758.91;;;6.61;81.53
83424;BME280;73355;49.044;8.686;2023-12-20T05:05:02;99762.44;;;6.69;81.44
83424;BME280;73355;49.044;8.686;2023-12-20T05:07:28;99757.81;;;6.70;81.79
83424;BME280;73355;49.044;8.686;2023-12-20T05:09:53;99762.06;;;6.71;81.62
83424;BME280;73355;49.044;8.686;2023-12-20T05:12:19;99761.69;;;6.72;82.04
83424;BME280;73355;49.044;8.686;2023-12-20T05:14:44;99762.03;;;6.67;82.11
83424;BME280;73355;49.044;8.686;2023-12-20T05:17:10;99757.38;;;6.64;81.89
83424;BME280;73355;49.044;8.686;2023-12-20T05:19:35;99767.09;;;6.72;82.25
83424;BME280;73355;49.044;8.686;2023-12-20T05:22:01;99772.50;;;6.69;81.71
83424;BME280;73355;49.044;8.686;2023-12-20T05:24:27;99768.28;;;6.71;81.85
83424;BME280;73355;49.044;8.686;2023-12-20T05:26:52;99781.44;;;6.76;81.85
83424;BME280;73355;49.044;8.686;2023-12-20T05:29:18;99781.78;;;6.71;81.53
83424;BME280;73355;49.044;8.686;2023-12-20T05:31:43;99785.22;;;6.68;82.07
83424;BME280;73355;49.044;8.686;2023-12-20T05:34:08;99792.91;;;6.62;82.22
83424;BME280;73355;49.044;8.686;2023-12-20T05:36:33;99796.47;;;6.74;81.92
83424;BME280;73355;49.044;8.686;2023-12-20T05:38:59;99792.56;;;6.68;81.89
83424;BME280;73355;49.044;8.686;2023-12-20T05:41:24;99797.97;;;6.64;82.44
83424;BME280;73355;49.044;8.686;2023-12-20T05:43:49;99804.56;;;6.70;82.11
83424;BME280;73355;49.044;8.686;2023-12-20T05:46:15;99816.97;;;6.75;82.05
83424;BME280;73355;49.044;8.686;2023-12-20T05:48:40;99812.69;;;6.70;81.76
83424;BME280;73355;49.044;8.686;2023-12-20T05:51:05;99823.88;;;6.69;81.73
83424;BME280;73355;49.044;8.686;2023-12-20T05:53:33;99824.25;;;6.67;82.36
83424;BME280;73355;49.044;8.686;2023-12-20T05:55:58;99832.00;;;6.69;82.17
83424;BME280;73355;49.044;8.686;2023-12-20T05:58:24;99823.91;;;6.72;82.58
83424;BME280;73355;49.044;8.686;2023-12-20T06:00:50;99826.22;;;6.70;82.55
83424;BME280;73355;49.044;8.686;2023-12-20T06:03:15;99816.97;;;6.75;82.55
83424;BME280;73355;49.044;8.686;2023-12-20T06:05:40;99821.66;;;6.81;82.81
83424;BME280;73355;49.044;8.686;2023-12-20T06:08:06;99831.38;;;6.89;82.17
83424;BME280;73355;49.044;8.686;2023-12-20T06:10:32;99841.41;;;6.85;81.94
83424;BME280;73355;49.044;8.686;2023-12-20T06:12:57;99846.94;;;6.99;82.01
83424;BME280;73355;49.044;8.686;2023-12-20T06:15:24;99857.31;;;6.94;80.73
83424;BME280;73355;49.044;8.686;2023-12-20T06:17:49;99852.28;;;6.92;81.60
83424;BME280;73355;49.044;8.686;2023-12-20T06:20:15;99853.00;;;6.86;81.29
83424;BME280;73355;49.044;8.686;2023-12-20T06:22:40;99859.59;;;6.88;81.22
83424;BME280;73355;49.044;8.686;2023-12-20T06:25:06;99863.44;;;6.87;81.51
83424;BME280;73355;49.044;8.686;2023-12-20T06:27:32;99854.63;;;6.94;81.45
83424;BME280;73355;49.044;8.686;2023-12-20T06:29:57;99849.22;;;6.97;81.16
83424;BME280;73355;49.044;8.686;2023-12-20T06:32:23;99860.03;;;6.94;80.93
83424;BME280;73355;49.044;8.686;2023-12-20T06:34:48;99859.25;;;6.97;81.18
83424;BME280;73355;49.044;8.686;2023-12-20T06:37:14;99876.63;;;6.92;80.60
83424;BME280;73355;49.044;8.686;2023-12-20T06:39:40;99874.28;;;6.91;80.92
83424;BME280;73355;49.044;8.686;2023-12-20T06:42:06;99870.44;;;6.88;80.74
83424;BME280;73355;49.044;8.686;2023-12-20T06:44:31;99860.81;;;6.94;81.15
83424;BME280;73355;49.044;8.686;2023-12-20T06:46:56;99869.66;;;6.91;80.84
83424;BME280;73355;49.044;8.686;2023-12-20T06:49:22;99870.44;;;6.88;80.90
83424;BME280;73355;49.044;8.686;2023-12-20T06:51:47;99870.44;;;6.88;80.47
83424;BME280;73355;49.044;8.686;2023-12-20T06:54:13;99873.56;;;6.94;80.32
83424;BME280;73355;49.044;8.686;2023-12-20T06:56:38;99883.63;;;6.97;80.49
83424;BME280;73355;49.044;8.686;2023-12-20T06:59:03;99887.09;;;6.97;79.96
83424;BME280;73355;49.044;8.686;2023-12-20T07:01:28;99902.59;;;7.00;79.95
83424;BME280;73355;49.044;8.686;2023-12-20T07:03:54;99904.50;;;6.96;80.06
83424;BME280;73355;49.044;8.686;2023-12-20T07:06:19;99899.06;;;6.96;80.17
83424;BME280;73355;49.044;8.686;2023-12-20T07:08:45;99898.69;;;6.94;80.35
83424;BME280;73355;49.044;8.686;2023-12-20T07:11:10;99905.28;;;6.97;79.58
83424;BME280;73355;49.044;8.686;2023-12-20T07:13:36;99910.69;;;6.97;79.59
83424;BME280;73355;49.044;8.686;2023-12-20T07:16:01;99909.13;;;6.96;79.54
83424;BME280;73355;49.044;8.686;2023-12-20T07:18:27;99914.88;;;6.91;79.27
83424;BME280;73355;49.044;8.686;2023-12-20T07:20:52;99916.06;;;6.93;78.97
83424;BME280;73355;49.044;8.686;2023-12-20T07:23:19;99918.78;;;6.93;79.98
83424;BME280;73355;49.044;8.686;2023-12-20T07:25:45;99930.34;;;6.90;79.40
83424;BME280;73355;49.044;8.686;2023-12-20T07:28:10;99933.88;;;6.98;79.16
83424;BME280;73355;49.044;8.686;2023-12-20T07:30:36;99932.25;;;6.90;78.43
83424;BME280;73355;49.044;8.686;2023-12-20T07:33:01;99926.47;;;6.88;79.14
83424;BME280;73355;49.044;8.686;2023-12-20T07:35:27;99928.03;;;6.89;79.15
83424;BME280;73355;49.044;8.686;2023-12-20T07:37:52;99933.03;;;6.90;78.62
83424;BME280;73355;49.044;8.686;2023-12-20T07:40:18;99943.44;;;6.85;78.86
83424;BME280;73355;49.044;8.686;2023-12-20T07:42:43;99939.56;;;6.82;78.91
83424;BME280;73355;49.044;8.686;2023-12-20T07:45:09;99935.28;;;6.78;79.08
83424;BME280;73355;49.044;8.686;2023-12-20T07:47:35;99940.63;;;6.74;79.08
83424;BME280;73355;49.044;8.686;2023-12-20T07:50:01;99935.66;;;6.80;78.77
83424;BME280;73355;49.044;8.686;2023-12-20T07:52:29;99944.13;;;6.78;78.07
83424;BME280;73355;49.044;8.686;2023-12-20T07:54:54;99951.03;;;6.72;77.90
83424;BME280;73355;49.044;8.686;2023-12-20T07:57:20;99940.59;;;6.71;78.05
83424;BME280;73355;49.044;8.686;2023-12-20T07:59:46;99937.91;;;6.71;78.29
83424;BME280;73355;49.044;8.686;2023-12-20T08:02:12;99939.47;;;6.72;78.18
83424;BME280;73355;49.044;8.686;2023-12-20T08:04:38;99949.88;;;6.70;77.92
83424;BME280;73355;49.044;8.686;2023-12-20T08:07:03;99959.28;;;6.83;77.40
83424;BME280;73355;49.044;8.686;2023-12-20T08:09:29;99962.25;;;6.71;77.32
83424;BME280;73355;49.044;8.686;2023-12-20T08:11:57;99954.41;;;6.62;77.09
83424;BME280;73355;49.044;8.686;2023-12-20T08:14:24;99957.44;;;6.57;77.38
83424;BME280;73355;49.044;8.686;2023-12-20T08:16:50;99952.78;;;6.54;77.76
83424;BME280;73355;49.044;8.686;2023-12-20T08:19:15;99953.97;;;6.56;77.67
83424;BME280;73355;49.044;8.686;2023-12-20T08:21:40;99959.03;;;6.61;78.03
83424;BME280;73355;49.044;8.686;2023-12-20T08:24:06;99962.56;;;6.66;78.28
83424;BME280;73355;49.044;8.686;2023-12-20T08:26:32;99968.00;;;6.66;78.39
83424;BME280;73355;49.044;8.686;2023-12-20T08:28:58;99973.50;;;6.76;78.67
83424;BME280;73355;49.044;8.686;2023-12-20T08:31:23;99971.25;;;6.82;77.97
83424;BME280;73355;49.044;8.686;2023-12-20T08:33:49;99958.88;;;6.84;77.95
83424;BME280;73355;49.044;8.686;2023-12-20T08:36:15;99966.22;;;6.84;78.37
83424;BME280;73355;49.044;8.686;2023-12-20T08:38:43;99969.38;;;6.89;78.24
83424;BME280;73355;49.044;8.686;2023-12-20T08:41:08;99980.59;;;6.91;78.18
83424;BME280;73355;49.044;8.686;2023-12-20T08:43:34;99984.09;;;6.92;77.90
83424;BME280;73355;49.044;8.686;2023-12-20T08:46:01;99983.78;;;7.00;77.61
83424;BME280;73355;49.044;8.686;2023-12-20T08:48:26;99971.00;;;7.01;77.12
83424;BME280;73355;49.044;8.686;2023-12-20T08:50:52;99974.50;;;7.01;77.28
83424;BME280;73355;49.044;8.686;2023-12-20T08:53:18;99983.47;;;7.09;76.90
83424;BME280;73355;49.044;8.686;2023-12-20T08:55:44;99980.41;;;7.14;76.91
83424;BME280;73355;49.044;8.686;2023-12-20T08:58:10;99973.22;;;7.29;76.08
83424;BME280;73355;49.044;8.686;2023-12-20T09:00:35;99976.31;;;7.31;75.28
83424;BME280;73355;49.044;8.686;2023-12-20T09:03:01;99974.81;;;7.37;74.70
83424;BME280;73355;49.044;8.686;2023-12-20T09:05:27;99977.22;;;7.45;74.13
83424;BME280;73355;49.044;8.686;2023-12-20T09:07:53;99972.19;;;7.47;73.88
83424;BME280;73355;49.044;8.686;2023-12-20T09:10:22;99978.00;;;7.50;73.00
83424;BME280;73355;49.044;8.686;2023-12-20T09:12:56;99979.94;;;7.53;72.58
83424;BME280;73355;49.044;8.686;2023-12-20T09:15:28;99973.31;;;7.46;72.44
83424;BME280;73355;49.044;8.686;2023-12-20T09:17:55;99969.47;;;7.47;71.90
83424;BME280;73355;49.044;8.686;2023-12-20T09:20:20;99980.38;;;7.58;71.36
83424;BME280;73355;49.044;8.686;2023-12-20T09:22:46;99979.91;;;7.45;71.13
83424;BME280;73355;49.044;8.686;2023-12-20T09:25:12;99972.94;;;7.44;71.03
83424;BME280;73355;49.044;8.686;2023-12-20T09:27:38;99970.28;;;7.52;70.88
83424;BME280;73355;49.044;8.686;2023-12-20T09:30:05;99970.25;;;7.48;70.30
83424;BME280;73355;49.044;8.686;2023-12-20T09:32:31;99969.16;;;7.56;70.08
83424;BME280;73355;49.044;8.686;2023-12-20T09:34:56;99952.97;;;7.70;69.70
83424;BME280;73355;49.044;8.686;2023-12-20T09:37:22;99957.25;;;7.68;69.48
83424;BME280;73355;49.044;8.686;2023-12-20T09:39:48;99975.47;;;7.78;69.48
83424;BME280;73355;49.044;8.686;2023-12-20T09:42:17;99973.91;;;7.77;69.37
83424;BME280;73355;49.044;8.686;2023-12-20T09:44:44;99975.13;;;7.83;68.38
83424;BME280;73355;49.044;8.686;2023-12-20T09:47:10;99968.94;;;7.82;67.93
83424;BME280;73355;49.044;8.686;2023-12-20T09:49:36;99970.47;;;7.83;68.27
83424;BME280;73355;49.044;8.686;2023-12-20T09:52:05;99966.69;;;7.99;68.57
83424;BME280;73355;49.044;8.686;2023-12-20T09:54:31;99974.84;;;8.02;67.78
83424;BME280;73355;49.044;8.686;2023-12-20T09:56:57;99978.00;;;8.11;66.38
83424;BME280;73355;49.044;8.686;2023-12-20T09:59:22;99984.91;;;8.02;67.07
83424;BME280;73355;49.044;8.686;2023-12-20T10:01:48;99974.91;;;8.16;66.85
83424;BME280;73355;49.044;8.686;2023-12-20T10:04:13;99981.09;;;8.13;66.52
83424;BME280;73355;49.044;8.686;2023-12-20T10:06:40;99984.09;;;7.94;66.47
83424;BME280;73355;49.044;8.686;2023-12-20T10:09:05;99975.06;;;7.69;67.32
83424;BME280;73355;49.044;8.686;2023-12-20T10:11:31;99983.91;;;7.62;68.32
83424;BME280;73355;49.044;8.686;2023-12-20T10:14:00;99965.69;;;7.59;68.08
83424;BME280;73355;49.044;8.686;2023-12-20T10:16:28;99963.38;;;7.61;67.86
83424;BME280;73355;49.044;8.686;2023-12-20T10:18:55;99968.00;;;7.57;68.27
83424;BME280;73355;49.044;8.686;2023-12-20T10:21:22;99973.13;;;7.73;68.43
83424;BME280;73355;49.044;8.686;2023-12-20T10:23:50;99967.00;;;7.83;67.94
83424;BME280;73355;49.044;8.686;2023-12-20T10:26:20;99969.63;;;7.69;67.72
83424;BME280;73355;49.044;8.686;2023-12-20T10:28:46;99965.66;;;7.56;68.28
83424;BME280;73355;49.044;8.686;2023-12-20T10:31:31;99960.00;;;7.82;67.82
83424;BME280;73355;49.044;8.686;2023-12-20T10:34:00;99966.16;;;7.75;67.75
83424;BME280;73355;49.044;8.686;2023-12-20T10:36:35;99961.03;;;7.60;68.68
83424;BME280;73355;49.044;8.686;2023-12-20T10:39:02;99962.53;;;7.54;68.82
83424;BME280;73355;49.044;8.686;2023-12-20T10:41:29;99964.06;;;7.47;69.42
83424;BME280;73355;49.044;8.686;2023-12-20T10:44:02;99973.66;;;7.38;69.77
83424;BME280;73355;49.044;8.686;2023-12-20T10:46:29;99959.31;;;7.34;70.04
83424;BME280;73355;49.044;8.686;2023-12-20T10:48:56;99972.53;;;7.42;69.30
83424;BME280;73355;49.044;8.686;2023-12-20T10:51:23;99966.69;;;7.37;69.17
83424;BME280;73355;49.044;8.686;2023-12-20T10:53:51;99968.22;;;7.34;69.24
83424;BME280;73355;49.044;8.686;2023-12-20T10:56:17;99962.41;;;7.36;69.98
83424;BME280;73355;49.044;8.686;2023-12-20T10:58:43;99958.53;;;7.33;69.39
83424;BME280;73355;49.044;8.686;2023-12-20T11:01:09;99953.13;;;7.33;69.72
83424;BME280;73355;49.044;8.686;2023-12-20T11:03:37;99960.81;;;7.28;69.37
83424;BME280;73355;49.044;8.686;2023-12-20T11:06:08;99956.53;;;7.23;69.42
83424;BME280;73355;49.044;8.686;2023-12-20T11:08:41;99957.28;;;7.24;69.46
83424;BME280;73355;49.044;8.686;2023-12-20T11:14:05;99921.63;;;7.11;70.16
83424;BME280;73355;49.044;8.686;2023-12-20T11:16:36;99927.56;;;7.31;69.84
83424;BME280;73355;49.044;8.686;2023-12-20T11:19:05;99930.38;;;7.45;69.00
83424;BME280;73355;49.044;8.686;2023-12-20T11:21:31;99917.66;;;7.53;68.91
83424;BME280;73355;49.044;8.686;2023-12-20T11:23:56;99921.97;;;7.64;68.27
83424;BME280;73355;49.044;8.686;2023-12-20T11:26:28;99928.16;;;7.61;67.76
83424;BME280;73355;49.044;8.686;2023-12-20T11:28:54;99932.44;;;7.66;67.51
83424;BME280;73355;49.044;8.686;2023-12-20T11:31:19;99927.34;;;7.54;67.46
83424;BME280;73355;49.044;8.686;2023-12-20T11:33:45;99928.84;;;7.47;67.36
83424;BME280;73355;49.044;8.686;2023-12-20T11:36:14;99930.09;;;7.57;66.79
83424;BME280;73355;49.044;8.686;2023-12-20T11:39:01;99937.38;;;7.50;66.56
83424;BME280;73355;49.044;8.686;2023-12-20T11:41:32;99922.66;;;7.47;66.96
83424;BME280;73355;49.044;8.686;2023-12-20T11:43:57;99920.41;;;7.60;66.70
83424;BME280;73355;49.044;8.686;2023-12-20T11:46:23;99914.22;;;7.59;67.00
83424;BME280;73355;49.044;8.686;2023-12-20T11:48:48;99911.91;;;7.65;67.31
83424;BME280;73355;49.044;8.686;2023-12-20T11:51:14;99913.06;;;7.64;67.18
83424;BME280;73355;49.044;8.686;2023-12-20T11:53:40;99922.34;;;7.59;67.21
83424;BME280;73355;49.044;8.686;2023-12-20T11:56:07;99918.00;;;7.47;68.17
83424;BME280;73355;49.044;8.686;2023-12-20T11:58:33;99928.06;;;7.43;68.75
83424;BME280;73355;49.044;8.686;2023-12-20T12:00:59;99934.66;;;7.46;69.42
83424;BME280;73355;49.044;8.686;2023-12-20T12:03:25;99911.38;;;7.38;69.32
83424;BME280;73355;49.044;8.686;2023-12-20T12:05:50;99921.03;;;7.35;69.34
83424;BME280;73355;49.044;8.686;2023-12-20T12:08:18;99919.44;;;7.31;69.79
83424;BME280;73355;49.044;8.686;2023-12-20T12:10:44;99913.59;;;7.25;69.71
83424;BME280;73355;49.044;8.686;2023-12-20T12:13:10;99926.34;;;7.21;70.27
83424;BME280;73355;49.044;8.686;2023-12-20T12:15:36;99917.47;;;7.24;70.69
83424;BME280;73355;49.044;8.686;2023-12-20T12:18:02;99906.25;;;7.26;70.77
83424;BME280;73355;49.044;8.686;2023-12-20T12:20:27;99904.78;;;7.35;70.63
83424;BME280;73355;49.044;8.686;2023-12-20T12:23:04;99905.25;;;7.44;70.18
83424;BME280;73355;49.044;8.686;2023-12-20T12:25:35;99900.25;;;7.50;69.96
83424;BME280;73355;49.044;8.686;2023-12-20T12:28:00;99901.81;;;7.51;69.68
83424;BME280;73355;49.044;8.686;2023-12-20T12:30:26;99900.56;;;7.41;69.69
83424;BME280;73355;49.044;8.686;2023-12-20T12:32:52;99895.50;;;7.33;69.93
83424;BME280;73355;49.044;8.686;2023-12-20T12:35:18;99901.31;;;7.38;70.21
83424;BME280;73355;49.044;8.686;2023-12-20T12:37:44;99899.44;;;7.46;70.30
83424;BME280;73355;49.044;8.686;2023-12-20T12:40:11;99910.59;;;7.37;70.23
83424;BME280;73355;49.044;8.686;2023-12-20T12:42:37;99909.09;;;7.43;70.97
83424;BME280;73355;49.044;8.686;2023-12-20T12:45:03;99904.41;;;7.40;70.44
83424;BME280;73355;49.044;8.686;2023-12-20T12:47:29;99904.03;;;7.42;70.16
83424;BME280;73355;49.044;8.686;2023-12-20T12:49:54;99884.31;;;7.38;70.52
83424;BME280;73355;49.044;8.686;2023-12-20T12:52:20;99903.66;;;7.40;70.39
83424;BME280;73355;49.044;8.686;2023-12-20T12:54:45;99902.41;;;7.30;70.11
83424;BME280;73355;49.044;8.686;2023-12-20T12:57:12;99897.41;;;7.29;69.68
83424;BME280;73355;49.044;8.686;2023-12-20T12:59:37;99916.38;;;7.32;69.50
83424;BME280;73355;49.044;8.686;2023-12-20T13:02:02;99912.81;;;7.21;69.73
83424;BME280;73355;49.044;8.686;2023-12-20T13:04:28;99908.56;;;7.24;69.95
83424;BME280;73355;49.044;8.686;2023-12-20T13:06:54;99905.06;;;7.20;69.87
83424;BME280;73355;49.044;8.686;2023-12-20T13:09:20;99908.53;;;7.20;70.17